sensor_id;sensor_type;location;lat;lon;timestamp;pressure;altitude;pressure_sealevel;temperature;humidity
32298;BME280;18782;48.984;8.548;2023-04-24T00:01:59;98853.59;;;11.98;86.91
32298;BME280;18782;48.984;8.548;2023-04-24T00:04:27;98843.28;;;11.98;83.90
32298;BME280;18782;48.984;8.548;2023-04-24T00:06:55;98855.31;;;11.99;85.46
32298;BME280;18782;48.984;8.548;2023-04-24T00:09:23;98858.72;;;11.95;86.62
32298;BME280;18782;48.984;8.548;2023-04-24T00:11:52;98853.56;;;11.95;85.71
32298;BME280;18782;48.984;8.548;2023-04-24T00:14:21;98851.84;;;11.94;86.77
32298;BME280;18782;48.984;8.548;2023-04-24T00:16:48;98857.00;;;11.94;88.00
32298;BME280;18782;48.984;8.548;2023-04-24T00:19:16;98851.88;;;11.91;88.33
32298;BME280;18782;48.984;8.548;2023-04-24T00:21:47;98855.28;;;11.90;88.25
32298;BME280;18782;48.984;8.548;2023-04-24T00:24:16;98862.16;;;11.89;89.05
32298;BME280;18782;48.984;8.548;2023-04-24T00:26:44;98856.13;;;11.83;88.79
32298;BME280;18782;48.984;8.548;2023-04-24T00:29:12;98863.88;;;11.86;90.01
32298;BME280;18782;48.984;8.548;2023-04-24T00:31:41;98875.91;;;11.87;89.25
32298;BME280;18782;48.984;8.548;2023-04-24T00:34:08;98869.03;;;11.83;89.09
32298;BME280;18782;48.984;8.548;2023-04-24T00:36:36;98868.13;;;11.74;91.61
32298;BME280;18782;48.984;8.548;2023-04-24T00:39:04;98863.84;;;11.76;91.80
32298;BME280;18782;48.984;8.548;2023-04-24T00:41:32;98860.38;;;11.71;92.25
32298;BME280;18782;48.984;8.548;2023-04-24T00:43:59;98862.09;;;11.72;92.72
32298;BME280;18782;48.984;8.548;2023-04-24T00:46:27;98864.66;;;11.72;92.74
32298;BME280;18782;48.984;8.548;2023-04-24T00:48:58;98870.69;;;11.71;92.78
32298;BME280;18782;48.984;8.548;2023-04-24T00:51:26;98854.38;;;11.71;92.77
32298;BME280;18782;48.984;8.548;2023-04-24T00:53:54;98855.22;;;11.67;92.10
32298;BME280;18782;48.984;8.548;2023-04-24T00:56:21;98855.22;;;11.65;91.95
32298;BME280;18782;48.984;8.548;2023-04-24T00:58:49;98858.66;;;11.64;90.26
32298;BME280;18782;48.984;8.548;2023-04-24T01:01:18;98848.31;;;11.63;90.82
32298;BME280;18782;48.984;8.548;2023-04-24T01:03:49;98847.47;;;11.67;90.83
32298;BME280;18782;48.984;8.548;2023-04-24T01:06:19;98846.59;;;11.63;91.78
32298;BME280;18782;48.984;8.548;2023-04-24T01:08:48;98842.31;;;11.64;91.38
32298;BME280;18782;48.984;8.548;2023-04-24T01:11:16;98845.75;;;11.66;90.94
32298;BME280;18782;48.984;8.548;2023-04-24T01:13:44;98844.91;;;11.68;91.48
32298;BME280;18782;48.984;8.548;2023-04-24T01:16:13;98844.03;;;11.66;90.98
32298;BME280;18782;48.984;8.548;2023-04-24T01:18:41;98844.03;;;11.62;90.58
32298;BME280;18782;48.984;8.548;2023-04-24T01:21:13;98838.00;;;11.61;88.03
32298;BME280;18782;48.984;8.548;2023-04-24T01:23:42;98850.03;;;11.64;89.20
32298;BME280;18782;48.984;8.548;2023-04-24T01:26:10;98843.16;;;11.63;90.47
32298;BME280;18782;48.984;8.548;2023-04-24T01:28:38;98837.16;;;11.59;92.07
32298;BME280;18782;48.984;8.548;2023-04-24T01:31:06;98834.59;;;11.59;92.58
32298;BME280;18782;48.984;8.548;2023-04-24T01:33:34;98833.72;;;11.54;91.89
32298;BME280;18782;48.984;8.548;2023-04-24T01:36:02;98825.97;;;11.51;91.58
32298;BME280;18782;48.984;8.548;2023-04-24T01:38:30;98839.69;;;11.53;90.89
32298;BME280;18782;48.984;8.548;2023-04-24T01:41:00;98836.28;;;11.54;91.44
32298;BME280;18782;48.984;8.548;2023-04-24T01:43:28;98831.13;;;11.57;92.26
32298;BME280;18782;48.984;8.548;2023-04-24T01:45:57;98832.84;;;11.58;92.11
32298;BME280;18782;48.984;8.548;2023-04-24T01:48:24;98839.72;;;11.62;91.69
32298;BME280;18782;48.984;8.548;2023-04-24T01:50:52;98831.16;;;11.66;91.83
32298;BME280;18782;48.984;8.548;2023-04-24T01:53:20;98831.16;;;11.68;90.11
32298;BME280;18782;48.984;8.548;2023-04-24T01:55:47;98832.88;;;11.70;91.68
32298;BME280;18782;48.984;8.548;2023-04-24T01:58:17;98833.72;;;11.66;92.90
32298;BME280;18782;48.984;8.548;2023-04-24T02:00:44;98824.28;;;11.65;89.88
32298;BME280;18782;48.984;8.548;2023-04-24T02:03:13;98826.84;;;11.64;89.19
32298;BME280;18782;48.984;8.548;2023-04-24T02:05:43;98832.00;;;11.68;88.20
32298;BME280;18782;48.984;8.548;2023-04-24T02:08:11;98832.88;;;11.73;86.60
32298;BME280;18782;48.984;8.548;2023-04-24T02:10:38;98829.50;;;11.87;84.25
32298;BME280;18782;48.984;8.548;2023-04-24T02:13:06;98830.38;;;11.90;83.91
32298;BME280;18782;48.984;8.548;2023-04-24T02:15:35;98826.91;;;12.00;83.72
32298;BME280;18782;48.984;8.548;2023-04-24T02:18:03;98826.09;;;12.06;83.39
32298;BME280;18782;48.984;8.548;2023-04-24T02:20:31;98823.50;;;12.03;84.07
32298;BME280;18782;48.984;8.548;2023-04-24T02:23:00;98835.53;;;12.04;82.45
32298;BME280;18782;48.984;8.548;2023-04-24T02:25:27;98838.13;;;12.07;82.19
32298;BME280;18782;48.984;8.548;2023-04-24T02:27:55;98839.84;;;12.08;82.75
32298;BME280;18782;48.984;8.548;2023-04-24T02:30:23;98842.44;;;12.07;84.13
32298;BME280;18782;48.984;8.548;2023-04-24T02:32:52;98832.94;;;12.04;84.40
32298;BME280;18782;48.984;8.548;2023-04-24T02:35:20;98837.25;;;12.04;84.79
32298;BME280;18782;48.984;8.548;2023-04-24T02:37:48;98832.94;;;12.04;83.89
32298;BME280;18782;48.984;8.548;2023-04-24T02:40:15;98843.28;;;12.04;84.20
32298;BME280;18782;48.984;8.548;2023-04-24T02:42:43;98839.84;;;12.02;84.69
32298;BME280;18782;48.984;8.548;2023-04-24T02:45:11;98836.41;;;12.03;84.83
32298;BME280;18782;48.984;8.548;2023-04-24T02:47:39;98834.66;;;12.05;85.67
32298;BME280;18782;48.984;8.548;2023-04-24T02:50:09;98833.81;;;12.05;85.25
32298;BME280;18782;48.984;8.548;2023-04-24T02:52:37;98838.13;;;12.01;84.27
32298;BME280;18782;48.984;8.548;2023-04-24T02:55:05;98851.00;;;12.10;84.91
32298;BME280;18782;48.984;8.548;2023-04-24T02:57:34;98844.16;;;12.12;84.54
32298;BME280;18782;48.984;8.548;2023-04-24T03:00:02;98848.44;;;12.13;85.16
32298;BME280;18782;48.984;8.548;2023-04-24T03:02:32;98859.59;;;12.11;85.99
32298;BME280;18782;48.984;8.548;2023-04-24T03:05:01;98864.78;;;12.12;84.96
32298;BME280;18782;48.984;8.548;2023-04-24T03:07:30;98868.22;;;12.11;86.59
32298;BME280;18782;48.984;8.548;2023-04-24T03:09:58;98868.22;;;12.20;85.00
32298;BME280;18782;48.984;8.548;2023-04-24T03:12:26;98877.66;;;12.21;85.80
32298;BME280;18782;48.984;8.548;2023-04-24T03:14:54;98875.94;;;12.02;86.81
32298;BME280;18782;48.984;8.548;2023-04-24T03:17:22;98881.06;;;11.90;86.97
32298;BME280;18782;48.984;8.548;2023-04-24T03:19:49;98885.34;;;11.80;85.90
32298;BME280;18782;48.984;8.548;2023-04-24T03:22:17;98902.47;;;11.67;87.02
32298;BME280;18782;48.984;8.548;2023-04-24T03:24:46;98897.28;;;11.55;86.80
32298;BME280;18782;48.984;8.548;2023-04-24T03:27:16;98904.94;;;11.43;87.62
32298;BME280;18782;48.984;8.548;2023-04-24T03:29:56;98906.63;;;11.29;89.70
32298;BME280;18782;48.984;8.548;2023-04-24T03:32:36;98914.22;;;11.12;91.53
32298;BME280;18782;48.984;8.548;2023-04-24T03:35:07;98929.63;;;10.98;93.40
32298;BME280;18782;48.984;8.548;2023-04-24T03:37:35;98925.22;;;10.85;94.94
32298;BME280;18782;48.984;8.548;2023-04-24T03:40:24;98940.63;;;10.76;96.98
32298;BME280;18782;48.984;8.548;2023-04-24T03:42:52;98929.44;;;10.70;97.38
32298;BME280;18782;48.984;8.548;2023-04-24T03:45:20;98937.97;;;10.69;98.34
32298;BME280;18782;48.984;8.548;2023-04-24T03:47:50;98952.50;;;10.61;98.76
32298;BME280;18782;48.984;8.548;2023-04-24T03:50:18;98938.72;;;10.53;98.53
32298;BME280;18782;48.984;8.548;2023-04-24T03:52:47;98936.22;;;10.64;98.88
32298;BME280;18782;48.984;8.548;2023-04-24T03:55:29;98941.41;;;10.65;99.75
32298;BME280;18782;48.984;8.548;2023-04-24T03:57:58;98942.31;;;10.70;100.00
32298;BME280;18782;48.984;8.548;2023-04-24T04:00:25;98940.53;;;10.66;97.83
32298;BME280;18782;48.984;8.548;2023-04-24T04:03:13;98951.63;;;10.58;97.20
32298;BME280;18782;48.984;8.548;2023-04-24T04:05:42;98954.19;;;10.59;97.92
32298;BME280;18782;48.984;8.548;2023-04-24T04:08:10;98954.19;;;10.59;96.67
32298;BME280;18782;48.984;8.548;2023-04-24T04:10:39;98959.34;;;10.59;96.79
32298;BME280;18782;48.984;8.548;2023-04-24T04:13:06;98961.06;;;10.57;95.61
32298;BME280;18782;48.984;8.548;2023-04-24T04:15:35;98972.25;;;10.61;94.91
32298;BME280;18782;48.984;8.548;2023-04-24T04:18:03;98956.66;;;10.49;94.61
32298;BME280;18782;48.984;8.548;2023-04-24T04:20:30;98966.16;;;10.51;94.45
32298;BME280;18782;48.984;8.548;2023-04-24T04:22:58;98983.25;;;10.46;93.02
32298;BME280;18782;48.984;8.548;2023-04-24T04:25:40;98979.78;;;10.41;94.21
32298;BME280;18782;48.984;8.548;2023-04-24T04:28:07;98982.38;;;10.44;93.09
32298;BME280;18782;48.984;8.548;2023-04-24T04:30:36;98981.41;;;10.33;92.68
32298;BME280;18782;48.984;8.548;2023-04-24T04:33:04;98977.97;;;10.31;92.30
32298;BME280;18782;48.984;8.548;2023-04-24T04:35:33;98981.41;;;10.33;91.70
32298;BME280;18782;48.984;8.548;2023-04-24T04:38:01;98988.19;;;10.28;91.45
32298;BME280;18782;48.984;8.548;2023-04-24T04:41:02;98993.34;;;10.28;91.21
32298;BME280;18782;48.984;8.548;2023-04-24T04:43:32;98988.19;;;10.28;91.92
32298;BME280;18782;48.984;8.548;2023-04-24T04:46:01;98995.91;;;10.28;91.30
32298;BME280;18782;48.984;8.548;2023-04-24T04:48:41;99001.91;;;10.24;91.21
32298;BME280;18782;48.984;8.548;2023-04-24T04:51:09;98996.63;;;10.17;91.58
32298;BME280;18782;48.984;8.548;2023-04-24T04:53:37;99010.41;;;10.21;91.54
32298;BME280;18782;48.984;8.548;2023-04-24T04:56:07;99020.69;;;10.23;92.33
32298;BME280;18782;48.984;8.548;2023-04-24T04:58:40;99015.63;;;10.24;91.15
32298;BME280;18782;48.984;8.548;2023-04-24T05:01:11;99012.25;;;10.33;91.46
32298;BME280;18782;48.984;8.548;2023-04-24T05:03:43;99020.03;;;10.36;90.82
32298;BME280;18782;48.984;8.548;2023-04-24T05:06:13;99021.81;;;10.43;90.85
32298;BME280;18782;48.984;8.548;2023-04-24T05:08:42;99021.78;;;10.40;91.04
32298;BME280;18782;48.984;8.548;2023-04-24T05:11:22;99025.22;;;10.40;89.65
32298;BME280;18782;48.984;8.548;2023-04-24T05:13:50;99032.09;;;10.40;89.75
32298;BME280;18782;48.984;8.548;2023-04-24T05:16:23;99036.41;;;10.44;89.67
32298;BME280;18782;48.984;8.548;2023-04-24T05:18:53;99038.19;;;10.54;89.03
32298;BME280;18782;48.984;8.548;2023-04-24T05:21:27;99036.50;;;10.53;88.50
32298;BME280;18782;48.984;8.548;2023-04-24T05:23:55;99026.19;;;10.50;88.54
32298;BME280;18782;48.984;8.548;2023-04-24T05:26:39;99030.47;;;10.54;88.10
32298;BME280;18782;48.984;8.548;2023-04-24T05:29:08;99039.16;;;10.61;88.26
32298;BME280;18782;48.984;8.548;2023-04-24T05:31:36;99040.00;;;10.60;88.87
32298;BME280;18782;48.984;8.548;2023-04-24T05:34:04;99049.50;;;10.70;89.68
32298;BME280;18782;48.984;8.548;2023-04-24T05:36:32;99052.06;;;10.65;90.10
32298;BME280;18782;48.984;8.548;2023-04-24T05:39:00;99050.47;;;10.77;89.93
32298;BME280;18782;48.984;8.548;2023-04-24T05:41:27;99049.69;;;10.87;89.63
32298;BME280;18782;48.984;8.548;2023-04-24T05:43:56;99047.16;;;10.93;90.32
32298;BME280;18782;48.984;8.548;2023-04-24T05:46:24;99049.81;;;11.02;90.98
32298;BME280;18782;48.984;8.548;2023-04-24T05:48:51;99055.88;;;11.09;90.85
32298;BME280;18782;48.984;8.548;2023-04-24T05:51:19;99055.06;;;11.13;88.22
32298;BME280;18782;48.984;8.548;2023-04-24T05:53:47;99063.56;;;11.03;87.35
32298;BME280;18782;48.984;8.548;2023-04-24T05:56:15;99067.81;;;10.99;85.86
32298;BME280;18782;48.984;8.548;2023-04-24T05:58:43;99076.38;;;10.98;85.23
32298;BME280;18782;48.984;8.548;2023-04-24T06:01:12;99069.56;;;11.03;83.95
32298;BME280;18782;48.984;8.548;2023-04-24T06:03:43;99075.50;;;10.93;83.97
32298;BME280;18782;48.984;8.548;2023-04-24T06:06:11;99081.44;;;10.89;85.55
32298;BME280;18782;48.984;8.548;2023-04-24T06:08:39;99074.63;;;10.92;84.70
32298;BME280;18782;48.984;8.548;2023-04-24T06:11:09;99064.41;;;11.02;83.96
32298;BME280;18782;48.984;8.548;2023-04-24T06:13:37;99075.63;;;11.10;84.20
32298;BME280;18782;48.984;8.548;2023-04-24T06:16:25;99076.53;;;11.13;83.01
32298;BME280;18782;48.984;8.548;2023-04-24T06:18:59;99091.94;;;11.10;80.10
32298;BME280;18782;48.984;8.548;2023-04-24T06:21:27;99085.19;;;11.24;81.05
32298;BME280;18782;48.984;8.548;2023-04-24T06:23:54;99087.78;;;11.24;80.32
32298;BME280;18782;48.984;8.548;2023-04-24T06:26:23;99088.63;;;11.23;79.17
32298;BME280;18782;48.984;8.548;2023-04-24T06:28:52;99093.72;;;11.17;77.62
32298;BME280;18782;48.984;8.548;2023-04-24T06:31:21;99092.88;;;11.20;77.93
32298;BME280;18782;48.984;8.548;2023-04-24T06:33:50;99104.84;;;11.13;77.48
32298;BME280;18782;48.984;8.548;2023-04-24T06:36:17;99101.50;;;11.23;77.62
32298;BME280;18782;48.984;8.548;2023-04-24T06:38:45;99095.50;;;11.24;78.14
32298;BME280;18782;48.984;8.548;2023-04-24T06:41:12;99108.38;;;11.24;78.33
32298;BME280;18782;48.984;8.548;2023-04-24T06:43:40;99109.25;;;11.27;77.58
32298;BME280;18782;48.984;8.548;2023-04-24T06:46:08;99124.69;;;11.23;75.87
32298;BME280;18782;48.984;8.548;2023-04-24T06:48:35;99129.94;;;11.36;75.75
32298;BME280;18782;48.984;8.548;2023-04-24T06:51:05;99130.81;;;11.38;74.42
32298;BME280;18782;48.984;8.548;2023-04-24T06:53:32;99123.16;;;11.44;74.97
32298;BME280;18782;48.984;8.548;2023-04-24T06:56:00;99140.28;;;11.42;74.01
32298;BME280;18782;48.984;8.548;2023-04-24T06:58:28;99125.69;;;11.39;71.97
32298;BME280;18782;48.984;8.548;2023-04-24T07:00:55;99123.19;;;11.48;72.02
32298;BME280;18782;48.984;8.548;2023-04-24T07:03:23;99125.75;;;11.50;72.27
32298;BME280;18782;48.984;8.548;2023-04-24T07:05:51;99136.03;;;11.44;72.05
32298;BME280;18782;48.984;8.548;2023-04-24T07:08:21;99139.47;;;11.47;71.97
32298;BME280;18782;48.984;8.548;2023-04-24T07:10:49;99141.19;;;11.44;70.93
32298;BME280;18782;48.984;8.548;2023-04-24T07:13:17;99155.75;;;11.39;70.33
32298;BME280;18782;48.984;8.548;2023-04-24T07:15:45;99141.19;;;11.44;69.84
32298;BME280;18782;48.984;8.548;2023-04-24T07:18:15;99149.78;;;11.44;71.17
32298;BME280;18782;48.984;8.548;2023-04-24T07:20:43;99157.47;;;11.40;70.76
32298;BME280;18782;48.984;8.548;2023-04-24T07:23:10;99162.63;;;11.43;70.36
32298;BME280;18782;48.984;8.548;2023-04-24T07:25:40;99142.88;;;11.42;70.68
32298;BME280;18782;48.984;8.548;2023-04-24T07:28:07;99158.50;;;11.60;70.84
32298;BME280;18782;48.984;8.548;2023-04-24T07:30:35;99174.06;;;11.79;71.26
32298;BME280;18782;48.984;8.548;2023-04-24T07:33:03;99176.66;;;11.79;68.48
32298;BME280;18782;48.984;8.548;2023-04-24T07:35:31;99180.91;;;11.72;66.92
32298;BME280;18782;48.984;8.548;2023-04-24T07:37:58;99181.81;;;11.75;68.15
32298;BME280;18782;48.984;8.548;2023-04-24T07:40:26;99168.19;;;11.95;66.98
32298;BME280;18782;48.984;8.548;2023-04-24T07:42:55;99173.31;;;11.86;66.02
32298;BME280;18782;48.984;8.548;2023-04-24T07:45:23;99183.75;;;12.04;66.33
32298;BME280;18782;48.984;8.548;2023-04-24T07:47:52;99192.34;;;12.03;65.33
32298;BME280;18782;48.984;8.548;2023-04-24T07:50:20;99180.41;;;12.20;65.09
32298;BME280;18782;48.984;8.548;2023-04-24T07:52:48;99175.16;;;12.02;65.58
32298;BME280;18782;48.984;8.548;2023-04-24T07:55:16;99173.47;;;12.07;65.19
32298;BME280;18782;48.984;8.548;2023-04-24T07:57:44;99195.84;;;12.11;65.53
32298;BME280;18782;48.984;8.548;2023-04-24T08:00:14;99201.03;;;12.20;65.01
32298;BME280;18782;48.984;8.548;2023-04-24T08:02:42;99208.66;;;12.00;64.58
32298;BME280;18782;48.984;8.548;2023-04-24T08:05:09;99209.53;;;12.04;64.71
32298;BME280;18782;48.984;8.548;2023-04-24T08:07:38;99224.09;;;11.94;65.21
32298;BME280;18782;48.984;8.548;2023-04-24T08:10:06;99229.94;;;11.76;67.31
32298;BME280;18782;48.984;8.548;2023-04-24T08:12:34;99236.69;;;11.62;67.92
32298;BME280;18782;48.984;8.548;2023-04-24T08:15:02;99236.78;;;11.71;66.84
32298;BME280;18782;48.984;8.548;2023-04-24T08:17:31;99233.47;;;11.85;67.13
32298;BME280;18782;48.984;8.548;2023-04-24T08:19:59;99235.25;;;11.92;67.77
32298;BME280;18782;48.984;8.548;2023-04-24T08:22:28;99230.16;;;12.01;67.48
32298;BME280;18782;48.984;8.548;2023-04-24T08:24:56;99235.38;;;12.10;64.71
32298;BME280;18782;48.984;8.548;2023-04-24T08:27:23;99242.94;;;11.86;64.27
32298;BME280;18782;48.984;8.548;2023-04-24T08:29:52;99257.66;;;11.97;65.04
32298;BME280;18782;48.984;8.548;2023-04-24T08:32:20;99273.94;;;11.93;65.21
32298;BME280;18782;48.984;8.548;2023-04-24T08:34:49;99286.09;;;11.21;68.06
32298;BME280;18782;48.984;8.548;2023-04-24T08:37:18;99287.94;;;10.60;72.44
32298;BME280;18782;48.984;8.548;2023-04-24T08:39:46;99294.34;;;10.31;74.98
32298;BME280;18782;48.984;8.548;2023-04-24T08:42:14;99282.28;;;10.27;75.57
32298;BME280;18782;48.984;8.548;2023-04-24T08:44:42;99274.28;;;10.11;76.38
32298;BME280;18782;48.984;8.548;2023-04-24T08:47:10;99278.91;;;10.31;77.35
32298;BME280;18782;48.984;8.548;2023-04-24T08:49:40;99285.69;;;10.24;76.12
32298;BME280;18782;48.984;8.548;2023-04-24T08:52:09;99271.34;;;10.40;76.27
32298;BME280;18782;48.984;8.548;2023-04-24T08:54:39;99264.72;;;10.57;76.05
32298;BME280;18782;48.984;8.548;2023-04-24T08:57:08;99273.50;;;10.75;75.60
32298;BME280;18782;48.984;8.548;2023-04-24T08:59:37;99270.22;;;10.85;73.96
32298;BME280;18782;48.984;8.548;2023-04-24T09:02:06;99265.22;;;10.97;76.27
32298;BME280;18782;48.984;8.548;2023-04-24T09:04:38;99292.56;;;10.87;70.15
32298;BME280;18782;48.984;8.548;2023-04-24T09:07:09;99280.63;;;10.94;70.58
32298;BME280;18782;48.984;8.548;2023-04-24T09:09:38;99273.38;;;11.37;72.65
32298;BME280;18782;48.984;8.548;2023-04-24T09:12:07;99277.38;;;11.94;69.34
32298;BME280;18782;48.984;8.548;2023-04-24T09:14:36;99284.47;;;12.16;64.55
32298;BME280;18782;48.984;8.548;2023-04-24T09:17:08;99269.81;;;12.12;63.90
32298;BME280;18782;48.984;8.548;2023-04-24T09:19:36;99283.53;;;12.08;62.82
32298;BME280;18782;48.984;8.548;2023-04-24T09:22:05;99280.13;;;12.15;63.09
32298;BME280;18782;48.984;8.548;2023-04-24T09:24:34;99268.16;;;12.23;63.10
32298;BME280;18782;48.984;8.548;2023-04-24T09:27:03;99270.88;;;12.45;62.76
32298;BME280;18782;48.984;8.548;2023-04-24T09:29:31;99284.69;;;12.58;62.34
32298;BME280;18782;48.984;8.548;2023-04-24T09:31:59;99289.03;;;12.60;61.50
32298;BME280;18782;48.984;8.548;2023-04-24T09:34:27;99297.63;;;12.62;61.42
32298;BME280;18782;48.984;8.548;2023-04-24T09:36:54;99297.72;;;12.74;60.83
32298;BME280;18782;48.984;8.548;2023-04-24T09:39:22;99303.75;;;12.78;60.03
32298;BME280;18782;48.984;8.548;2023-04-24T09:41:52;99304.53;;;12.59;59.84
32298;BME280;18782;48.984;8.548;2023-04-24T09:44:22;99335.50;;;12.63;60.80
32298;BME280;18782;48.984;8.548;2023-04-24T09:46:51;99327.69;;;12.52;59.65
32298;BME280;18782;48.984;8.548;2023-04-24T09:49:22;99317.47;;;12.66;59.33
32298;BME280;18782;48.984;8.548;2023-04-24T09:51:50;99323.31;;;12.38;59.88
32298;BME280;18782;48.984;8.548;2023-04-24T09:54:19;99330.00;;;12.14;59.81
32298;BME280;18782;48.984;8.548;2023-04-24T09:56:48;99323.03;;;12.04;60.00
32298;BME280;18782;48.984;8.548;2023-04-24T09:59:19;99335.06;;;12.02;60.45
32298;BME280;18782;48.984;8.548;2023-04-24T10:01:46;99320.53;;;12.13;59.57
32298;BME280;18782;48.984;8.548;2023-04-24T10:04:16;99323.06;;;12.07;59.65
32298;BME280;18782;48.984;8.548;2023-04-24T10:06:45;99333.41;;;12.07;59.80
32298;BME280;18782;48.984;8.548;2023-04-24T10:09:13;99335.16;;;12.11;60.87
32298;BME280;18782;48.984;8.548;2023-04-24T10:11:42;99336.38;;;12.61;59.24
32298;BME280;18782;48.984;8.548;2023-04-24T10:14:12;99330.41;;;12.69;58.99
32298;BME280;18782;48.984;8.548;2023-04-24T10:16:42;99342.59;;;12.92;59.05
32298;BME280;18782;48.984;8.548;2023-04-24T10:19:10;99338.94;;;12.61;60.03
32298;BME280;18782;48.984;8.548;2023-04-24T10:21:40;99339.19;;;13.02;60.06
32298;BME280;18782;48.984;8.548;2023-04-24T10:24:09;99332.31;;;13.10;59.05
32298;BME280;18782;48.984;8.548;2023-04-24T10:26:36;99342.59;;;12.92;59.13
32298;BME280;18782;48.984;8.548;2023-04-24T10:29:05;99344.22;;;12.74;60.18
32298;BME280;18782;48.984;8.548;2023-04-24T10:31:36;99351.81;;;12.58;61.19
32298;BME280;18782;48.984;8.548;2023-04-24T10:34:06;99369.97;;;12.67;61.55
32298;BME280;18782;48.984;8.548;2023-04-24T10:36:35;99363.63;;;12.22;60.31
32298;BME280;18782;48.984;8.548;2023-04-24T10:39:06;99360.97;;;12.14;60.23
32298;BME280;18782;48.984;8.548;2023-04-24T10:41:37;99366.59;;;11.75;60.93
32298;BME280;18782;48.984;8.548;2023-04-24T10:44:05;99371.84;;;11.83;61.19
32298;BME280;18782;48.984;8.548;2023-04-24T10:46:33;99352.78;;;11.73;61.16
32298;BME280;18782;48.984;8.548;2023-04-24T10:49:04;99376.03;;;11.74;61.82
32298;BME280;18782;48.984;8.548;2023-04-24T10:51:47;99358.81;;;11.70;62.06
32298;BME280;18782;48.984;8.548;2023-04-24T10:54:22;99370.78;;;11.67;62.40
32298;BME280;18782;48.984;8.548;2023-04-24T10:56:50;99383.66;;;11.65;63.10
32298;BME280;18782;48.984;8.548;2023-04-24T10:59:24;99360.56;;;11.74;62.79
32298;BME280;18782;48.984;8.548;2023-04-24T11:01:53;99359.81;;;11.82;63.04
32298;BME280;18782;48.984;8.548;2023-04-24T11:04:32;99358.81;;;11.73;63.60
32298;BME280;18782;48.984;8.548;2023-04-24T11:07:03;99360.63;;;11.81;63.72
32298;BME280;18782;48.984;8.548;2023-04-24T11:09:31;99368.25;;;11.73;65.41
32298;BME280;18782;48.984;8.548;2023-04-24T11:12:05;99363.97;;;11.73;66.45
32298;BME280;18782;48.984;8.548;2023-04-24T11:15:10;99373.28;;;11.59;68.21
32298;BME280;18782;48.984;8.548;2023-04-24T11:17:38;99379.44;;;11.70;67.72
32298;BME280;18782;48.984;8.548;2023-04-24T11:20:09;99384.53;;;11.64;67.64
32298;BME280;18782;48.984;8.548;2023-04-24T11:22:54;99379.28;;;11.58;69.12
32298;BME280;18782;48.984;8.548;2023-04-24T11:25:24;99373.19;;;11.50;70.54
32298;BME280;18782;48.984;8.548;2023-04-24T11:28:03;99371.53;;;11.55;69.92
32298;BME280;18782;48.984;8.548;2023-04-24T11:30:31;99366.59;;;11.80;71.28
32298;BME280;18782;48.984;8.548;2023-04-24T11:33:02;99366.94;;;12.10;71.04
32298;BME280;18782;48.984;8.548;2023-04-24T11:35:35;99368.66;;;12.10;66.77
32298;BME280;18782;48.984;8.548;2023-04-24T11:38:06;99367.78;;;12.09;67.08
32298;BME280;18782;48.984;8.548;2023-04-24T11:40:49;99371.28;;;12.11;68.35
32298;BME280;18782;48.984;8.548;2023-04-24T11:43:18;99369.56;;;12.13;67.97
32298;BME280;18782;48.984;8.548;2023-04-24T11:45:48;99393.63;;;12.14;66.91
32298;BME280;18782;48.984;8.548;2023-04-24T11:48:18;99384.34;;;11.49;70.67
32298;BME280;18782;48.984;8.548;2023-04-24T11:50:48;99392.75;;;11.36;74.11
32298;BME280;18782;48.984;8.548;2023-04-24T11:53:19;99418.19;;;11.11;76.83
32298;BME280;18782;48.984;8.548;2023-04-24T11:55:47;99418.91;;;11.00;81.67
32298;BME280;18782;48.984;8.548;2023-04-24T11:58:20;99416.09;;;10.83;82.76
32298;BME280;18782;48.984;8.548;2023-04-24T12:00:55;99415.91;;;10.70;84.56
32298;BME280;18782;48.984;8.548;2023-04-24T12:03:23;99420.50;;;10.91;86.64
32298;BME280;18782;48.984;8.548;2023-04-24T12:05:51;99412.88;;;10.99;84.98
32298;BME280;18782;48.984;8.548;2023-04-24T12:08:28;99418.41;;;11.27;81.79
32298;BME280;18782;48.984;8.548;2023-04-24T12:10:56;99415.47;;;11.67;83.45
32298;BME280;18782;48.984;8.548;2023-04-24T12:13:25;99424.59;;;12.12;83.61
32298;BME280;18782;48.984;8.548;2023-04-24T12:15:52;99426.44;;;12.25;80.87
32298;BME280;18782;48.984;8.548;2023-04-24T12:18:22;99423.03;;;12.28;76.77
32298;BME280;18782;48.984;8.548;2023-04-24T12:20:50;99428.25;;;12.36;76.55
32298;BME280;18782;48.984;8.548;2023-04-24T12:26:11;99416.78;;;13.17;71.26
32298;BME280;18782;48.984;8.548;2023-04-24T12:28:39;99416.97;;;13.48;71.14
32298;BME280;18782;48.984;8.548;2023-04-24T12:31:07;99414.50;;;13.81;68.86
32298;BME280;18782;48.984;8.548;2023-04-24T12:33:35;99430.03;;;13.78;68.35
32298;BME280;18782;48.984;8.548;2023-04-24T12:36:04;99432.47;;;13.42;66.82
32298;BME280;18782;48.984;8.548;2023-04-24T12:38:32;99438.28;;;13.13;62.58
32298;BME280;18782;48.984;8.548;2023-04-24T12:41:07;99428.66;;;12.88;63.42
32298;BME280;18782;48.984;8.548;2023-04-24T12:43:37;99416.66;;;12.99;61.92
32298;BME280;18782;48.984;8.548;2023-04-24T12:46:05;99470.53;;;13.73;58.29
32298;BME280;18782;48.984;8.548;2023-04-24T12:48:32;99412.00;;;14.43;56.80
32298;BME280;18782;48.984;8.548;2023-04-24T12:51:00;99417.19;;;14.44;57.76
32298;BME280;18782;48.984;8.548;2023-04-24T12:53:28;99420.66;;;14.49;56.89
32298;BME280;18782;48.984;8.548;2023-04-24T12:55:57;99423.19;;;15.20;55.34
32298;BME280;18782;48.984;8.548;2023-04-24T12:58:25;99410.06;;;15.67;52.63
32298;BME280;18782;48.984;8.548;2023-04-24T13:00:54;99397.63;;;16.21;52.34
32298;BME280;18782;48.984;8.548;2023-04-24T13:03:21;99399.09;;;16.56;52.56
32298;BME280;18782;48.984;8.548;2023-04-24T13:05:50;99399.41;;;16.14;51.77
32298;BME280;18782;48.984;8.548;2023-04-24T13:08:18;99391.38;;;16.47;51.53
32298;BME280;18782;48.984;8.548;2023-04-24T13:10:46;99391.34;;;16.51;50.49
32298;BME280;18782;48.984;8.548;2023-04-24T13:13:14;99410.16;;;16.82;50.28
32298;BME280;18782;48.984;8.548;2023-04-24T13:15:41;99401.44;;;15.53;52.86